.
WxDataArchive / Data Records for 2015-07-09
2015-07-08 July 2015 2015-07-10

Data Records for Thursday, 09 July 2015

Time	Temp	Chill	HIndex	Humid	Dewpt	 Wind 	HiWind	WindDir	Rain 	Barom
-----	----	-----	------	-----	-----	------	------	-------	-----	-----
00:00	62.1	62.1	62.1	95	60.6	0	2	90	0.00	29.976 
00:05	62.1	62.1	62.1	95	60.6	0	2	90	0.00	29.976 
00:10	62.1	62.1	62.1	95	60.6	0	2	90	0.00	29.976 
00:15	62.1	62.1	62.1	95	60.6	1	3	90	0.00	29.969 
00:20	62.1	62.1	62.1	95	60.6	1	3	90	0.00	29.969 
00:25	62.0	62.0	62.0	95	60.5	1	3	90	0.01	29.969 
00:30	62.0	62.0	62.0	95	60.5	0	2	90	0.00	29.963 
00:35	62.0	62.0	62.0	95	60.5	1	3	90	0.00	29.963 
00:40	62.0	62.0	62.0	95	60.5	1	3	90	0.00	29.963 
00:45	62.0	62.0	62.0	96	60.8	1	5	112	0.00	29.957 
00:50	61.8	61.8	61.8	95	60.3	1	5	68	0.00	29.957 
00:55	61.8	61.8	61.8	95	60.3	1	5	68	0.01	29.957 
01:00	61.6	61.6	61.6	96	60.4	2	5	90	0.02	29.953 
01:05	61.6	61.6	61.6	96	60.4	0	3	90	0.00	29.953 
01:10	61.6	61.6	61.6	96	60.4	1	3	90	0.05	29.953 
01:15	61.6	61.6	61.6	96	60.4	1	4	90	0.04	29.937 
01:20	61.6	61.6	61.6	96	60.4	1	3	90	0.03	29.937 
01:25	61.6	61.6	61.6	96	60.4	0	3	90	0.02	29.937 
01:30	61.6	61.6	61.6	96	60.4	0	2	90	0.03	29.943 
01:35	61.6	61.6	61.6	96	60.4	1	4	90	0.04	29.943 
01:40	61.6	61.6	61.6	96	60.4	1	4	90	0.04	29.943 
01:45	61.6	61.6	61.6	96	60.4	0	4	90	0.03	29.931 
01:50	61.6	61.6	61.6	96	60.4	1	4	90	0.04	29.931 
01:55	61.6	61.6	61.6	96	60.4	1	3	90	0.02	29.931 
02:00	61.6	61.6	61.6	96	60.4	2	5	90	0.08	29.913 
02:05	61.5	61.5	61.5	96	60.3	1	4	90	0.03	29.913 
02:10	61.5	61.5	61.5	96	60.3	1	4	90	0.02	29.913 
02:15	61.5	61.5	61.5	96	60.3	2	5	90	0.02	29.902 
02:20	61.6	61.6	61.6	96	60.4	1	4	90	0.01	29.902 
02:25	61.6	61.6	61.6	96	60.4	1	4	90	0.01	29.902 
02:30	61.5	61.5	61.5	96	60.3	1	6	90	0.01	29.903 
02:35	61.6	61.6	61.6	96	60.4	1	3	90	0.00	29.903 
02:40	61.6	61.6	61.6	96	60.4	1	3	45	0.01	29.903 
02:45	61.6	61.6	61.6	96	60.4	1	3	45	0.04	29.902 
02:50	61.6	61.6	61.6	96	60.4	0	2	45	0.11	29.902 
02:55	61.8	61.8	61.8	96	60.6	1	4	68	0.04	29.902 
03:00	61.8	61.8	61.8	96	60.6	1	3	68	0.02	29.884 
03:05	61.8	61.8	61.8	96	60.6	1	4	68	0.03	29.884 
03:10	61.8	61.8	61.8	96	60.6	1	3	68	0.03	29.884 
03:15	61.8	61.8	61.8	96	60.6	1	2	68	0.02	29.871 
03:20	61.8	61.8	61.8	96	60.6	1	3	68	0.01	29.871 
03:25	61.8	61.8	61.8	96	60.6	2	5	112	0.01	29.871 
03:30	62.0	62.0	62.0	96	60.8	1	4	112	0.03	29.867 
03:35	62.0	62.0	62.0	96	60.8	0	3	90	0.15	29.867 
03:40	62.0	62.0	62.0	96	60.8	1	3	90	0.04	29.867 
03:45	62.0	62.0	62.0	97	61.1	2	5	112	0.05	29.847 
03:50	62.0	62.0	62.0	97	61.1	3	6	90	0.03	29.847 
03:55	62.0	62.0	62.0	97	61.1	1	4	90	0.01	29.847 
04:00	62.0	62.0	62.0	97	61.1	2	5	90	0.01	29.842 
04:05	62.0	62.0	62.0	97	61.1	1	3	90	0.01	29.842 
04:10	62.1	62.1	62.1	97	61.2	1	3	68	0.00	29.842 
04:15	62.1	62.1	62.1	97	61.2	1	4	68	0.01	29.837 
04:20	62.1	62.1	62.1	97	61.2	0	3	68	0.00	29.837 
04:25	62.3	62.3	62.3	97	61.4	1	5	68	0.00	29.837 
04:30	62.4	62.4	62.4	97	61.5	1	4	90	0.02	29.826 
04:35	62.4	62.4	62.4	97	61.5	0	3	68	0.02	29.826 
04:40	62.4	62.4	62.4	97	61.5	0	2	68	0.00	29.826 
04:45	62.6	62.6	62.6	97	61.7	1	4	68	0.02	29.821 
04:50	62.6	62.6	62.6	97	61.7	1	3	68	0.00	29.821 
04:55	62.7	62.7	62.7	97	61.8	1	4	90	0.00	29.821 
05:00	62.7	62.7	62.7	97	61.8	1	2	90	0.00	29.808 
05:05	62.7	62.7	62.7	97	61.8	0	2	90	0.00	29.808 
05:10	62.7	62.7	62.7	97	61.8	0	2	90	0.00	29.808 
05:15	62.9	62.9	62.9	97	62.0	0	2	90	0.00	29.801 
05:20	62.9	62.9	62.9	97	62.0	0	2	90	0.00	29.801 
05:25	63.1	63.1	63.1	97	62.2	0	2	90	0.00	29.801 
05:30	63.1	63.1	63.1	97	62.2	0	1	90	0.00	29.801 
05:35	63.2	63.2	63.2	97	62.3	0	2	90	0.00	29.801 
05:40	63.2	63.2	63.2	97	62.3	0	1	90	0.00	29.801 
05:45	63.2	63.2	63.2	97	62.3	0	3	90	0.01	29.802 
05:50	63.4	63.4	63.4	97	62.5	0	2	90	0.00	29.802 
05:55	63.4	63.4	63.4	97	62.5	0	1	90	0.00	29.802 
06:00	63.4	63.4	63.4	97	62.5	0	1	90	0.00	29.797 
06:05	63.5	63.5	63.5	97	62.6	0	0	---	0.00	29.797 
06:10	63.5	63.5	63.5	97	62.6	0	0	---	0.00	29.797 
06:15	63.7	63.7	63.7	97	62.8	0	1	90	0.00	29.794 
06:20	63.7	63.7	63.7	97	62.8	0	0	---	0.00	29.794 
06:25	63.9	63.9	63.9	97	63.0	0	0	---	0.00	29.794 
06:30	63.9	63.9	63.9	97	63.0	0	0	---	0.00	29.796 
06:35	64.0	64.0	64.0	97	63.1	0	0	---	0.00	29.796 
06:40	64.2	64.2	64.2	97	63.3	1	5	270	0.00	29.796 
06:45	64.3	64.3	64.3	97	63.4	1	4	292	0.00	29.796 
06:50	64.8	64.8	64.8	97	63.9	0	1	315	0.00	29.796 
06:55	65.5	65.5	65.5	97	64.6	1	4	315	0.01	29.796 
07:00	65.5	65.5	65.5	97	64.6	1	2	315	0.00	29.810 
07:05	65.2	65.2	65.2	97	64.3	0	3	270	0.00	29.810 
07:10	64.8	64.8	64.8	97	63.9	0	2	270	0.00	29.810 
07:15	64.7	64.7	64.7	97	63.8	0	1	270	0.00	29.808 
07:20	64.7	64.7	64.7	97	63.8	0	2	292	0.00	29.808 
07:25	64.7	64.7	64.7	97	63.8	0	2	202	0.00	29.808 
07:30	64.5	64.5	64.5	97	63.6	0	1	202	0.00	29.810 
07:35	64.5	64.5	64.5	97	63.6	0	2	202	0.00	29.810 
07:40	64.5	64.5	64.5	97	63.6	0	1	202	0.00	29.810 
07:45	64.5	64.5	64.5	97	63.6	0	1	202	0.00	29.814 
07:50	64.5	64.5	64.5	97	63.6	0	0	---	0.00	29.814 
07:55	64.5	64.5	64.5	97	63.6	0	0	---	0.00	29.814 
08:00	64.7	64.7	64.7	97	63.8	0	0	---	0.00	29.820 
08:05	64.7	64.7	64.7	97	63.8	0	0	---	0.00	29.820 
08:10	64.7	64.7	64.7	97	63.8	0	1	202	0.00	29.820 
08:15	64.7	64.7	64.7	97	63.8	0	1	202	0.00	29.824 
08:20	64.8	64.8	64.8	97	63.9	0	0	---	0.00	29.824 
08:25	65.0	65.0	65.0	97	64.1	0	0	---	0.00	29.824 
08:30	65.0	65.0	65.0	97	64.1	0	1	202	0.00	29.833 
08:35	65.0	65.0	65.0	97	64.1	0	1	202	0.00	29.833 
08:40	65.2	65.2	65.2	97	64.3	0	1	202	0.00	29.833 
08:45	65.2	65.2	65.2	97	64.3	0	1	202	0.00	29.829 
08:50	65.2	65.2	65.2	97	64.3	0	0	---	0.00	29.829 
08:55	65.3	65.3	65.3	97	64.4	0	0	---	0.00	29.829 
09:00	65.5	65.5	65.5	97	64.6	0	0	---	0.00	29.829 
09:05	65.6	65.6	65.6	97	64.7	0	0	---	0.00	29.829 
09:10	65.6	65.6	65.6	97	64.7	0	0	---	0.00	29.829 
09:15	65.6	65.6	65.6	97	64.7	0	0	---	0.00	29.832 
09:20	65.6	65.6	65.6	97	64.7	0	0	---	0.00	29.832 
09:25	65.6	65.6	65.6	97	64.7	0	0	---	0.00	29.832 
09:30	65.6	65.6	65.6	97	64.7	0	0	---	0.00	29.838 
09:35	65.6	65.6	65.6	97	64.7	0	0	---	0.01	29.838 
09:40	65.6	65.6	65.6	97	64.7	0	0	---	0.01	29.838 
09:45	65.6	65.6	65.6	97	64.7	0	0	---	0.00	29.845 
09:50	65.6	65.6	65.6	97	64.7	0	0	---	0.01	29.845 
09:55	65.8	65.8	65.8	97	64.9	0	0	---	0.00	29.845 
10:00	66.0	66.0	66.0	97	65.1	0	0	---	0.00	29.845 
10:05	66.1	66.1	66.1	97	65.2	0	0	---	0.01	29.845 
10:10	66.4	66.4	66.4	98	65.8	0	0	---	0.00	29.845 
10:15	66.8	66.8	66.8	98	66.2	0	1	202	0.00	29.844 
10:20	67.1	67.1	67.1	98	66.5	0	2	202	0.00	29.844 
10:25	67.3	67.3	67.3	98	66.7	1	3	202	0.00	29.844 
10:30	67.4	67.4	67.4	98	66.8	0	2	202	0.00	29.851 
10:35	67.4	67.4	67.4	98	66.8	1	4	270	0.00	29.851 
10:40	67.4	67.4	67.4	98	66.8	1	2	270	0.00	29.851 
10:45	67.4	67.4	67.4	98	66.8	1	2	270	0.00	29.853 
10:50	67.4	67.4	67.4	98	66.8	1	5	270	0.01	29.853 
10:55	67.4	67.4	67.4	98	66.8	2	5	270	0.00	29.853 
11:00	67.4	67.4	67.4	98	66.8	2	4	292	0.01	29.853 
11:05	67.6	67.6	67.6	98	67.0	1	3	292	0.00	29.853 
11:10	67.8	67.8	67.8	98	67.2	2	4	315	0.00	29.853 
11:15	67.8	67.8	67.8	98	67.2	1	5	270	0.00	29.859 
11:20	67.8	67.8	67.8	98	67.2	2	4	270	0.00	29.859 
11:25	67.8	67.8	67.8	98	67.2	2	4	270	0.00	29.859 
11:30	67.9	67.9	67.9	98	67.3	1	3	270	0.00	29.865 
11:35	67.8	67.8	67.8	98	67.2	2	4	270	0.00	29.865 
11:40	67.6	67.6	67.6	97	66.7	2	5	270	0.00	29.865 
11:45	67.4	67.4	67.4	97	66.5	2	4	292	0.00	29.881 
11:50	67.6	67.6	67.6	97	66.7	2	5	270	0.00	29.881 
11:55	67.3	67.3	67.3	97	66.4	2	5	292	0.00	29.881 
12:00	67.4	67.4	67.4	97	66.5	1	4	292	0.00	29.886 
12:05	67.6	67.6	67.6	97	66.7	1	3	292	0.00	29.886 
12:10	67.8	67.8	67.8	97	66.9	2	5	292	0.00	29.886 
12:15	68.1	68.1	68.1	97	67.2	1	5	315	0.00	29.889 
12:20	68.4	68.4	68.4	97	67.5	1	4	315	0.00	29.889 
12:25	68.1	68.1	68.1	97	67.2	1	4	315	0.00	29.889 
12:30	67.8	67.8	67.8	97	66.9	1	3	315	0.00	29.893 
12:35	67.8	67.8	67.8	97	66.9	2	6	315	0.00	29.893 
12:40	67.8	67.8	67.8	97	66.9	2	4	315	0.00	29.893 
12:45	68.4	68.4	68.4	97	67.5	2	4	292	0.00	29.898 
12:50	68.4	68.4	68.4	96	67.2	2	6	292	0.00	29.898 
12:55	68.4	68.4	68.4	96	67.2	1	4	315	0.00	29.898 
13:00	68.1	68.1	68.1	96	66.9	3	5	292	0.00	29.910 
13:05	68.1	68.1	68.1	96	66.9	2	4	292	0.00	29.910 
13:10	68.4	68.4	68.4	95	66.9	1	4	315	0.00	29.910 
13:15	68.3	68.3	68.3	94	66.5	3	6	292	0.00	29.915 
13:20	68.4	68.4	68.4	94	66.6	2	5	292	0.00	29.915 
13:25	68.3	68.3	68.3	93	66.2	3	5	292	0.00	29.915 
13:30	68.4	68.4	68.4	92	66.0	2	4	292	0.00	29.923 
13:35	68.3	68.3	68.3	91	65.6	2	5	292	0.00	29.923 
13:40	68.3	68.3	68.3	90	65.2	3	6	292	0.00	29.923 
13:45	68.3	68.3	68.3	89	64.9	2	7	315	0.00	29.922 
13:50	68.3	68.3	68.3	89	64.9	2	4	270	0.00	29.922 
13:55	68.3	68.3	68.3	88	64.6	2	6	270	0.00	29.922 
14:00	68.3	68.3	68.3	88	64.6	2	4	270	0.00	29.928 
14:05	68.4	68.4	68.4	88	64.7	2	5	270	0.00	29.928 
14:10	68.4	68.4	68.4	87	64.4	2	5	270	0.00	29.928 
14:15	68.3	68.3	68.3	87	64.3	2	5	270	0.00	29.931 
14:20	68.4	68.4	68.4	87	64.4	2	4	270	0.00	29.931 
14:25	68.4	68.4	68.4	86	64.0	3	5	270	0.00	29.931 
14:30	68.6	68.6	68.6	86	64.2	1	3	270	0.00	29.932 
14:35	68.6	68.6	68.6	86	64.2	1	3	270	0.00	29.932 
14:40	68.8	68.8	68.8	86	64.4	1	4	270	0.00	29.932 
14:45	68.6	68.6	68.6	85	63.9	2	4	270	0.00	29.942 
14:50	68.4	68.4	68.4	85	63.7	2	5	270	0.00	29.942 
14:55	68.4	68.4	68.4	85	63.7	1	4	270	0.00	29.942 
15:00	68.3	68.3	68.3	85	63.6	2	5	270	0.00	29.942 
15:05	68.4	68.4	68.4	86	64.0	1	4	270	0.00	29.942 
15:10	68.6	68.6	68.6	85	63.9	1	4	270	0.00	29.942 
15:15	68.6	68.6	68.6	85	63.9	2	4	270	0.00	29.945 
15:20	68.6	68.6	68.6	85	63.9	2	4	270	0.00	29.945 
15:25	68.6	68.6	68.6	85	63.9	2	4	270	0.00	29.945 
15:30	68.8	68.8	68.8	84	63.8	2	4	270	0.00	29.947 
15:35	68.8	68.8	68.8	84	63.8	2	3	270	0.00	29.947 
15:40	68.6	68.6	68.6	84	63.6	2	3	270	0.00	29.947 
15:45	68.6	68.6	68.6	84	63.6	2	5	248	0.00	29.948 
15:50	68.4	68.4	68.4	84	63.4	2	5	315	0.00	29.948 
15:55	68.4	68.4	68.4	84	63.4	1	3	315	0.00	29.948 
16:00	68.4	68.4	68.4	84	63.4	1	3	315	0.00	29.952 
16:05	68.4	68.4	68.4	85	63.7	1	3	270	0.00	29.952 
16:10	68.4	68.4	68.4	85	63.7	1	5	270	0.00	29.952 
16:15	68.4	68.4	68.4	84	63.4	2	5	292	0.00	29.951 
16:20	68.4	68.4	68.4	85	63.7	2	6	270	0.00	29.951 
16:25	68.6	68.6	68.6	85	63.9	1	3	270	0.00	29.951 
16:30	68.6	68.6	68.6	85	63.9	1	3	270	0.00	29.953 
16:35	68.6	68.6	68.6	85	63.9	1	4	270	0.00	29.953 
16:40	68.6	68.6	68.6	84	63.6	1	4	270	0.00	29.953 
16:45	68.6	68.6	68.6	84	63.6	2	4	270	0.00	29.955 
16:50	68.4	68.4	68.4	85	63.7	2	4	270	0.00	29.955 
16:55	68.4	68.4	68.4	85	63.7	1	3	270	0.00	29.955 
17:00	68.3	68.3	68.3	86	63.9	2	4	270	0.00	29.960 
17:05	68.4	68.4	68.4	86	64.0	1	3	270	0.00	29.960 
17:10	68.4	68.4	68.4	86	64.0	1	2	270	0.00	29.960 
17:15	68.3	68.3	68.3	86	63.9	2	5	270	0.00	29.963 
17:20	68.3	68.3	68.3	86	63.9	1	4	270	0.00	29.963 
17:25	68.4	68.4	68.4	86	64.0	1	4	270	0.00	29.963 
17:30	68.8	68.8	68.8	86	64.4	1	3	270	0.00	29.962 
17:35	69.1	69.1	69.1	86	64.7	1	3	270	0.00	29.962 
17:40	69.3	69.3	69.3	85	64.6	1	4	270	0.00	29.962 
17:45	69.4	69.4	69.4	85	64.7	1	3	270	0.00	29.967 
17:50	69.3	69.3	69.3	84	64.2	1	4	270	0.00	29.967 
17:55	69.1	69.1	69.1	84	64.1	1	4	270	0.00	29.967 
18:00	69.1	69.1	69.1	85	64.4	1	2	270	0.00	29.971 
18:05	68.9	68.9	68.9	85	64.2	1	3	270	0.00	29.971 
18:10	68.9	68.9	68.9	85	64.2	1	3	270	0.00	29.971 
18:15	68.9	68.9	68.9	85	64.2	1	3	270	0.00	29.972 
18:20	68.9	68.9	68.9	85	64.2	1	3	270	0.00	29.972 
18:25	68.9	68.9	68.9	85	64.2	1	3	270	0.00	29.972 
18:30	68.9	68.9	68.9	84	63.9	1	3	270	0.00	29.973 
18:35	68.9	68.9	68.9	84	63.9	1	3	270	0.00	29.973 
18:40	68.9	68.9	68.9	84	63.9	1	3	270	0.00	29.973 
18:45	68.9	68.9	68.9	84	63.9	0	2	270	0.00	29.974 
18:50	69.1	69.1	69.1	84	64.1	1	4	270	0.00	29.974 
18:55	69.1	69.1	69.1	84	64.1	0	2	270	0.00	29.974 
19:00	69.1	69.1	69.1	84	64.1	1	3	270	0.00	29.978 
19:05	69.1	69.1	69.1	83	63.7	0	2	270	0.00	29.978 
19:10	69.1	69.1	69.1	84	64.1	0	1	270	0.00	29.978 
19:15	69.3	69.3	69.3	84	64.2	0	1	270	0.00	29.976 
19:20	69.3	69.3	69.3	84	64.2	0	1	270	0.00	29.976 
19:25	69.4	69.4	69.4	84	64.3	0	2	270	0.00	29.976 
19:30	69.4	69.4	69.4	83	64.0	0	2	270	0.00	29.979 
19:35	69.3	69.3	69.3	83	63.9	0	2	270	0.00	29.979 
19:40	69.3	69.3	69.3	83	63.9	0	1	270	0.00	29.979 
19:45	69.3	69.3	69.3	83	63.9	0	1	270	0.00	29.987 
19:50	69.3	69.3	69.3	83	63.9	0	2	270	0.00	29.987 
19:55	69.3	69.3	69.3	83	63.9	0	0	---	0.00	29.987 
20:00	69.4	69.4	69.4	83	64.0	0	1	270	0.00	29.992 
20:05	69.4	69.4	69.4	83	64.0	0	1	270	0.00	29.992 
20:10	69.4	69.4	69.4	83	64.0	0	1	270	0.00	29.992 
20:15	69.4	69.4	69.4	83	64.0	0	0	---	0.00	29.993 
20:20	69.4	69.4	69.4	83	64.0	0	1	270	0.00	29.993 
20:25	69.4	69.4	69.4	83	64.0	0	0	---	0.00	29.993 
20:30	69.3	69.3	69.3	83	63.9	0	0	---	0.00	30.000 
20:35	69.3	69.3	69.3	83	63.9	0	1	270	0.00	30.000 
20:40	69.3	69.3	69.3	83	63.9	0	1	270	0.00	30.000 
20:45	69.3	69.3	69.3	84	64.2	0	0	---	0.00	30.000 
20:50	69.1	69.1	69.1	84	64.1	0	0	---	0.00	30.000 
20:55	69.1	69.1	69.1	84	64.1	0	0	---	0.00	30.000 
21:00	68.9	68.9	68.9	84	63.9	0	0	---	0.00	29.992 
21:05	68.9	68.9	68.9	84	63.9	0	0	---	0.00	29.992 
21:10	68.8	68.8	68.8	84	63.8	0	0	---	0.00	29.992 
21:15	68.8	68.8	68.8	84	63.8	0	0	---	0.00	29.992 
21:20	68.8	68.8	68.8	84	63.8	0	0	---	0.00	29.992 
21:25	68.8	68.8	68.8	84	63.8	0	0	---	0.00	29.992 
21:30	68.8	68.8	68.8	85	64.1	0	0	---	0.00	29.998 
21:35	68.6	68.6	68.6	85	63.9	0	0	---	0.00	29.998 
21:40	68.6	68.6	68.6	85	63.9	0	0	---	0.00	29.998 
21:45	68.6	68.6	68.6	85	63.9	0	0	---	0.00	30.006 
21:50	68.6	68.6	68.6	85	63.9	0	1	270	0.00	30.006 
21:55	68.4	68.4	68.4	85	63.7	0	0	---	0.00	30.006 
22:00	68.4	68.4	68.4	85	63.7	0	0	---	0.00	30.011 
22:05	68.4	68.4	68.4	85	63.7	0	0	---	0.00	30.011 
22:10	68.3	68.3	68.3	85	63.6	0	0	---	0.00	30.011 
22:15	68.3	68.3	68.3	86	63.9	0	0	---	0.00	30.016 
22:20	68.3	68.3	68.3	86	63.9	0	0	---	0.00	30.016 
22:25	68.1	68.1	68.1	86	63.7	0	0	---	0.00	30.016 
22:30	68.1	68.1	68.1	86	63.7	0	0	---	0.00	30.016 
22:35	67.9	67.9	67.9	86	63.5	0	0	---	0.00	30.016 
22:40	67.9	67.9	67.9	86	63.5	0	0	---	0.00	30.016 
22:45	67.9	67.9	67.9	86	63.5	0	0	---	0.00	30.019 
22:50	67.9	67.9	67.9	87	63.9	0	0	---	0.00	30.019 
22:55	67.8	67.8	67.8	87	63.8	0	0	---	0.00	30.019 
23:00	67.6	67.6	67.6	86	63.3	0	1	270	0.00	30.020 
23:05	67.4	67.4	67.4	86	63.1	0	0	---	0.00	30.020 
23:10	67.4	67.4	67.4	86	63.1	0	0	---	0.00	30.020 
23:15	67.4	67.4	67.4	86	63.1	0	0	---	0.00	30.021 
23:20	67.4	67.4	67.4	86	63.1	0	0	---	0.00	30.021 
23:25	67.4	67.4	67.4	87	63.4	0	0	---	0.00	30.021 
23:30	67.4	67.4	67.4	87	63.4	0	0	---	0.00	30.019 
23:35	67.4	67.4	67.4	87	63.4	0	0	---	0.00	30.019 
23:40	67.4	67.4	67.4	87	63.4	0	0	---	0.00	30.019 
23:45	67.3	67.3	67.3	87	63.3	0	0	---	0.00	30.019 
23:50	67.3	67.3	67.3	87	63.3	0	1	270	0.00	30.019 
23:55	66.9	66.9	66.9	85	62.2	0	1	270	0.00	30.019 

CoCoRaHS
IN-AL-39
A2 Web Hosting
Creative Commons License
GoDaddy
search engine by freefind advanced

loaded 2018-11-12 19:17:18 • last modified 2010-11-18 10:43:29
Privacy PolicyDisclaimer
• wx.awcolley.com is powered by PmWiki v.2002016 •
• all content (unless otherwise noted) © 2018 A W Colley